sensor_id;sensor_type;location;lat;lon;timestamp;P1;durP1;ratioP1;P2;durP2;ratioP2
68647;SDS011;55632;51.962;16.116;2023-07-20T00:00:08;7.10;;;3.25;;
68647;SDS011;55632;51.962;16.116;2023-07-20T00:05:19;9.05;;;3.65;;
68647;SDS011;55632;51.962;16.116;2023-07-20T00:10:21;4.63;;;3.28;;
68647;SDS011;55632;51.962;16.116;2023-07-20T00:15:24;5.72;;;3.28;;
68647;SDS011;55632;51.962;16.116;2023-07-20T00:20:28;4.15;;;2.85;;
68647;SDS011;55632;51.962;16.116;2023-07-20T00:25:29;6.85;;;3.28;;
68647;SDS011;55632;51.962;16.116;2023-07-20T00:30:33;3.90;;;2.45;;
68647;SDS011;55632;51.962;16.116;2023-07-20T00:35:34;4.15;;;2.20;;
68647;SDS011;55632;51.962;16.116;2023-07-20T00:40:38;3.17;;;2.60;;
68647;SDS011;55632;51.962;16.116;2023-07-20T00:45:40;8.52;;;2.95;;
68647;SDS011;55632;51.962;16.116;2023-07-20T00:50:41;6.63;;;2.97;;
68647;SDS011;55632;51.962;16.116;2023-07-20T00:55:43;5.57;;;2.55;;
68647;SDS011;55632;51.962;16.116;2023-07-20T01:00:44;4.85;;;2.70;;
68647;SDS011;55632;51.962;16.116;2023-07-20T01:05:54;2.47;;;2.28;;
68647;SDS011;55632;51.962;16.116;2023-07-20T01:11:16;4.03;;;2.40;;
68647;SDS011;55632;51.962;16.116;2023-07-20T01:16:20;4.35;;;2.50;;
68647;SDS011;55632;51.962;16.116;2023-07-20T01:21:24;3.05;;;2.28;;
68647;SDS011;55632;51.962;16.116;2023-07-20T01:31:44;3.92;;;2.42;;
68647;SDS011;55632;51.962;16.116;2023-07-20T01:36:48;6.47;;;3.22;;
68647;SDS011;55632;51.962;16.116;2023-07-20T01:41:52;5.40;;;3.08;;
68647;SDS011;55632;51.962;16.116;2023-07-20T01:46:54;7.43;;;3.67;;
68647;SDS011;55632;51.962;16.116;2023-07-20T01:51:55;11.10;;;2.83;;
68647;SDS011;55632;51.962;16.116;2023-07-20T01:56:56;2.95;;;2.45;;
68647;SDS011;55632;51.962;16.116;2023-07-20T02:01:56;3.85;;;2.67;;
68647;SDS011;55632;51.962;16.116;2023-07-20T02:06:58;4.43;;;2.80;;
68647;SDS011;55632;51.962;16.116;2023-07-20T02:11:59;4.85;;;2.60;;
68647;SDS011;55632;51.962;16.116;2023-07-20T02:17:03;3.60;;;2.60;;
68647;SDS011;55632;51.962;16.116;2023-07-20T02:22:04;6.97;;;2.97;;
68647;SDS011;55632;51.962;16.116;2023-07-20T02:27:05;2.67;;;2.17;;
68647;SDS011;55632;51.962;16.116;2023-07-20T02:32:09;20.08;;;4.00;;
68647;SDS011;55632;51.962;16.116;2023-07-20T02:37:11;7.30;;;3.30;;
68647;SDS011;55632;51.962;16.116;2023-07-20T02:42:15;5.70;;;3.35;;
68647;SDS011;55632;51.962;16.116;2023-07-20T02:47:16;5.63;;;3.20;;
68647;SDS011;55632;51.962;16.116;2023-07-20T02:52:20;3.47;;;2.95;;
68647;SDS011;55632;51.962;16.116;2023-07-20T02:57:21;8.13;;;3.25;;
68647;SDS011;55632;51.962;16.116;2023-07-20T03:02:22;3.92;;;3.17;;
68647;SDS011;55632;51.962;16.116;2023-07-20T03:07:23;6.13;;;3.83;;
68647;SDS011;55632;51.962;16.116;2023-07-20T03:12:24;13.02;;;4.50;;
68647;SDS011;55632;51.962;16.116;2023-07-20T03:17:28;6.57;;;3.90;;
68647;SDS011;55632;51.962;16.116;2023-07-20T03:22:30;6.28;;;3.72;;
68647;SDS011;55632;51.962;16.116;2023-07-20T03:27:33;3.65;;;3.33;;
68647;SDS011;55632;51.962;16.116;2023-07-20T03:32:36;7.40;;;3.90;;
68647;SDS011;55632;51.962;16.116;2023-07-20T03:37:37;6.07;;;3.90;;
68647;SDS011;55632;51.962;16.116;2023-07-20T03:42:43;8.27;;;3.78;;
68647;SDS011;55632;51.962;16.116;2023-07-20T03:47:43;4.70;;;4.05;;
68647;SDS011;55632;51.962;16.116;2023-07-20T03:52:45;5.28;;;3.83;;
68647;SDS011;55632;51.962;16.116;2023-07-20T03:57:45;7.07;;;4.38;;
68647;SDS011;55632;51.962;16.116;2023-07-20T04:02:46;4.60;;;3.88;;
68647;SDS011;55632;51.962;16.116;2023-07-20T04:07:47;6.93;;;4.07;;
68647;SDS011;55632;51.962;16.116;2023-07-20T04:12:48;4.22;;;3.38;;
68647;SDS011;55632;51.962;16.116;2023-07-20T04:17:49;6.43;;;3.72;;
68647;SDS011;55632;51.962;16.116;2023-07-20T04:22:53;5.97;;;3.30;;
68647;SDS011;55632;51.962;16.116;2023-07-20T04:27:58;4.75;;;3.22;;
68647;SDS011;55632;51.962;16.116;2023-07-20T04:33:03;6.22;;;3.30;;
68647;SDS011;55632;51.962;16.116;2023-07-20T04:38:05;5.68;;;2.65;;
68647;SDS011;55632;51.962;16.116;2023-07-20T04:43:05;4.90;;;2.97;;
68647;SDS011;55632;51.962;16.116;2023-07-20T04:48:11;3.05;;;2.45;;
68647;SDS011;55632;51.962;16.116;2023-07-20T04:53:18;4.80;;;3.17;;
68647;SDS011;55632;51.962;16.116;2023-07-20T04:58:25;4.00;;;2.85;;
68647;SDS011;55632;51.962;16.116;2023-07-20T05:03:30;4.82;;;3.10;;
68647;SDS011;55632;51.962;16.116;2023-07-20T05:08:31;4.10;;;2.90;;
68647;SDS011;55632;51.962;16.116;2023-07-20T05:13:34;3.47;;;2.30;;
68647;SDS011;55632;51.962;16.116;2023-07-20T05:18:35;4.07;;;2.58;;
68647;SDS011;55632;51.962;16.116;2023-07-20T05:23:36;7.90;;;2.85;;
68647;SDS011;55632;51.962;16.116;2023-07-20T05:28:39;6.05;;;2.70;;
68647;SDS011;55632;51.962;16.116;2023-07-20T05:33:40;5.25;;;2.90;;
68647;SDS011;55632;51.962;16.116;2023-07-20T05:38:41;4.88;;;2.80;;
68647;SDS011;55632;51.962;16.116;2023-07-20T05:43:42;3.88;;;2.90;;
68647;SDS011;55632;51.962;16.116;2023-07-20T05:48:45;4.95;;;3.75;;
68647;SDS011;55632;51.962;16.116;2023-07-20T05:53:46;6.10;;;3.92;;
68647;SDS011;55632;51.962;16.116;2023-07-20T05:58:50;6.13;;;3.70;;
68647;SDS011;55632;51.962;16.116;2023-07-20T06:03:53;6.70;;;4.32;;
68647;SDS011;55632;51.962;16.116;2023-07-20T06:08:54;5.78;;;3.63;;
68647;SDS011;55632;51.962;16.116;2023-07-20T06:13:55;5.43;;;4.22;;
68647;SDS011;55632;51.962;16.116;2023-07-20T06:19:01;7.53;;;5.00;;
68647;SDS011;55632;51.962;16.116;2023-07-20T06:24:04;5.97;;;4.05;;
68647;SDS011;55632;51.962;16.116;2023-07-20T06:29:06;8.48;;;4.93;;
68647;SDS011;55632;51.962;16.116;2023-07-20T06:34:06;11.93;;;4.85;;
68647;SDS011;55632;51.962;16.116;2023-07-20T06:39:10;9.48;;;5.30;;
68647;SDS011;55632;51.962;16.116;2023-07-20T06:44:14;10.70;;;5.60;;
68647;SDS011;55632;51.962;16.116;2023-07-20T06:49:27;8.38;;;5.55;;
68647;SDS011;55632;51.962;16.116;2023-07-20T06:54:31;5.90;;;4.85;;
68647;SDS011;55632;51.962;16.116;2023-07-20T06:59:32;5.47;;;4.95;;
68647;SDS011;55632;51.962;16.116;2023-07-20T07:04:33;7.22;;;5.40;;
68647;SDS011;55632;51.962;16.116;2023-07-20T07:09:34;7.85;;;5.72;;
68647;SDS011;55632;51.962;16.116;2023-07-20T07:14:35;9.95;;;5.70;;
68647;SDS011;55632;51.962;16.116;2023-07-20T07:19:36;7.53;;;5.40;;
68647;SDS011;55632;51.962;16.116;2023-07-20T07:24:38;5.95;;;5.07;;
68647;SDS011;55632;51.962;16.116;2023-07-20T07:29:44;6.60;;;5.13;;
68647;SDS011;55632;51.962;16.116;2023-07-20T07:34:45;6.43;;;5.07;;
68647;SDS011;55632;51.962;16.116;2023-07-20T07:39:47;7.97;;;5.53;;
68647;SDS011;55632;51.962;16.116;2023-07-20T07:44:51;5.72;;;5.18;;
68647;SDS011;55632;51.962;16.116;2023-07-20T07:49:52;5.55;;;4.85;;
68647;SDS011;55632;51.962;16.116;2023-07-20T07:54:55;6.28;;;4.32;;
68647;SDS011;55632;51.962;16.116;2023-07-20T07:59:56;5.90;;;4.60;;
68647;SDS011;55632;51.962;16.116;2023-07-20T08:04:57;6.07;;;4.50;;
68647;SDS011;55632;51.962;16.116;2023-07-20T08:09:57;5.88;;;3.92;;
68647;SDS011;55632;51.962;16.116;2023-07-20T08:14:59;4.88;;;3.50;;
68647;SDS011;55632;51.962;16.116;2023-07-20T08:20:00;3.10;;;2.80;;
68647;SDS011;55632;51.962;16.116;2023-07-20T08:25:01;4.28;;;2.80;;
68647;SDS011;55632;51.962;16.116;2023-07-20T08:30:02;2.75;;;2.55;;
68647;SDS011;55632;51.962;16.116;2023-07-20T08:35:05;7.88;;;2.97;;
68647;SDS011;55632;51.962;16.116;2023-07-20T08:40:07;2.58;;;2.30;;
68647;SDS011;55632;51.962;16.116;2023-07-20T08:45:11;4.07;;;2.80;;
68647;SDS011;55632;51.962;16.116;2023-07-20T08:50:14;2.88;;;2.60;;
68647;SDS011;55632;51.962;16.116;2023-07-20T08:55:16;6.43;;;2.75;;
68647;SDS011;55632;51.962;16.116;2023-07-20T09:00:25;2.60;;;2.10;;
68647;SDS011;55632;51.962;16.116;2023-07-20T09:05:30;3.30;;;2.13;;
68647;SDS011;55632;51.962;16.116;2023-07-20T09:10:31;3.60;;;2.58;;
68647;SDS011;55632;51.962;16.116;2023-07-20T09:15:32;4.10;;;2.30;;
68647;SDS011;55632;51.962;16.116;2023-07-20T09:20:33;2.20;;;2.00;;
68647;SDS011;55632;51.962;16.116;2023-07-20T09:25:34;2.45;;;1.98;;
68647;SDS011;55632;51.962;16.116;2023-07-20T09:30:36;2.78;;;1.92;;
68647;SDS011;55632;51.962;16.116;2023-07-20T09:35:37;3.22;;;2.00;;
68647;SDS011;55632;51.962;16.116;2023-07-20T09:40:38;1.88;;;1.55;;
68647;SDS011;55632;51.962;16.116;2023-07-20T09:45:40;2.83;;;1.75;;
68647;SDS011;55632;51.962;16.116;2023-07-20T09:50:54;2.85;;;1.70;;
68647;SDS011;55632;51.962;16.116;2023-07-20T09:55:56;4.18;;;2.53;;
68647;SDS011;55632;51.962;16.116;2023-07-20T10:00:58;3.63;;;1.92;;
68647;SDS011;55632;51.962;16.116;2023-07-20T10:06:05;1.95;;;1.80;;
68647;SDS011;55632;51.962;16.116;2023-07-20T10:11:09;3.35;;;2.60;;
68647;SDS011;55632;51.962;16.116;2023-07-20T10:16:24;1.70;;;1.60;;
68647;SDS011;55632;51.962;16.116;2023-07-20T10:21:29;5.15;;;2.40;;
68647;SDS011;55632;51.962;16.116;2023-07-20T10:26:31;1.95;;;1.65;;
68647;SDS011;55632;51.962;16.116;2023-07-20T10:31:32;2.83;;;2.00;;
68647;SDS011;55632;51.962;16.116;2023-07-20T10:36:34;3.53;;;1.77;;
68647;SDS011;55632;51.962;16.116;2023-07-20T10:41:46;3.03;;;2.22;;
68647;SDS011;55632;51.962;16.116;2023-07-20T10:46:47;2.13;;;1.60;;
68647;SDS011;55632;51.962;16.116;2023-07-20T10:51:48;1.55;;;1.45;;
68647;SDS011;55632;51.962;16.116;2023-07-20T10:56:56;1.90;;;1.80;;
68647;SDS011;55632;51.962;16.116;2023-07-20T11:01:58;3.65;;;2.50;;
68647;SDS011;55632;51.962;16.116;2023-07-20T11:07:01;2.55;;;2.22;;
68647;SDS011;55632;51.962;16.116;2023-07-20T11:12:09;3.63;;;1.90;;
68647;SDS011;55632;51.962;16.116;2023-07-20T11:17:11;2.80;;;2.03;;
68647;SDS011;55632;51.962;16.116;2023-07-20T11:22:18;3.15;;;2.08;;
68647;SDS011;55632;51.962;16.116;2023-07-20T11:27:20;3.20;;;2.13;;
68647;SDS011;55632;51.962;16.116;2023-07-20T11:32:24;5.10;;;2.00;;
68647;SDS011;55632;51.962;16.116;2023-07-20T11:37:25;2.08;;;1.88;;
68647;SDS011;55632;51.962;16.116;2023-07-20T11:42:26;1.70;;;1.60;;
68647;SDS011;55632;51.962;16.116;2023-07-20T11:47:28;2.00;;;1.80;;
68647;SDS011;55632;51.962;16.116;2023-07-20T11:52:29;7.50;;;1.98;;
68647;SDS011;55632;51.962;16.116;2023-07-20T11:57:31;2.33;;;1.70;;
68647;SDS011;55632;51.962;16.116;2023-07-20T12:02:32;2.45;;;1.65;;
68647;SDS011;55632;51.962;16.116;2023-07-20T12:07:34;2.25;;;1.83;;
68647;SDS011;55632;51.962;16.116;2023-07-20T12:12:40;1.73;;;1.63;;
68647;SDS011;55632;51.962;16.116;2023-07-20T12:17:44;1.70;;;1.60;;
68647;SDS011;55632;51.962;16.116;2023-07-20T12:22:46;1.60;;;1.50;;
68647;SDS011;55632;51.962;16.116;2023-07-20T12:27:49;3.85;;;1.35;;
68647;SDS011;55632;51.962;16.116;2023-07-20T12:32:50;1.75;;;1.40;;
68647;SDS011;55632;51.962;16.116;2023-07-20T12:37:51;2.88;;;1.38;;
68647;SDS011;55632;51.962;16.116;2023-07-20T12:42:55;1.70;;;1.40;;
68647;SDS011;55632;51.962;16.116;2023-07-20T12:47:56;3.80;;;1.77;;
68647;SDS011;55632;51.962;16.116;2023-07-20T12:53:00;1.70;;;1.40;;
68647;SDS011;55632;51.962;16.116;2023-07-20T12:58:03;1.40;;;1.30;;
68647;SDS011;55632;51.962;16.116;2023-07-20T13:03:06;4.28;;;1.23;;
68647;SDS011;55632;51.962;16.116;2023-07-20T13:08:08;2.33;;;1.60;;
68647;SDS011;55632;51.962;16.116;2023-07-20T13:13:13;1.73;;;1.25;;
68647;SDS011;55632;51.962;16.116;2023-07-20T13:18:14;1.55;;;1.45;;
68647;SDS011;55632;51.962;16.116;2023-07-20T13:23:15;3.35;;;1.80;;
68647;SDS011;55632;51.962;16.116;2023-07-20T13:28:16;1.70;;;1.52;;
68647;SDS011;55632;51.962;16.116;2023-07-20T13:33:17;3.03;;;1.73;;
68647;SDS011;55632;51.962;16.116;2023-07-20T13:38:20;3.15;;;1.60;;
68647;SDS011;55632;51.962;16.116;2023-07-20T13:43:53;1.50;;;1.38;;
68647;SDS011;55632;51.962;16.116;2023-07-20T13:48:53;3.00;;;1.35;;
68647;SDS011;55632;51.962;16.116;2023-07-20T13:53:57;1.45;;;1.20;;
68647;SDS011;55632;51.962;16.116;2023-07-20T13:58:58;2.83;;;1.33;;
68647;SDS011;55632;51.962;16.116;2023-07-20T14:03:59;1.48;;;1.02;;
68647;SDS011;55632;51.962;16.116;2023-07-20T14:09:03;1.52;;;1.13;;
68647;SDS011;55632;51.962;16.116;2023-07-20T14:14:18;0.80;;;0.80;;
68647;SDS011;55632;51.962;16.116;2023-07-20T14:19:19;4.28;;;1.30;;
68647;SDS011;55632;51.962;16.116;2023-07-20T14:24:20;1.35;;;1.00;;
68647;SDS011;55632;51.962;16.116;2023-07-20T14:29:21;8.15;;;1.90;;
68647;SDS011;55632;51.962;16.116;2023-07-20T14:34:22;2.30;;;1.35;;
68647;SDS011;55632;51.962;16.116;2023-07-20T14:39:31;2.70;;;1.40;;
68647;SDS011;55632;51.962;16.116;2023-07-20T14:44:34;1.52;;;1.13;;
68647;SDS011;55632;51.962;16.116;2023-07-20T14:49:35;9.20;;;1.60;;
68647;SDS011;55632;51.962;16.116;2023-07-20T14:54:42;1.70;;;1.15;;
68647;SDS011;55632;51.962;16.116;2023-07-20T14:59:43;3.25;;;1.38;;
68647;SDS011;55632;51.962;16.116;2023-07-20T15:04:50;1.05;;;1.00;;
68647;SDS011;55632;51.962;16.116;2023-07-20T15:09:53;1.73;;;1.30;;
68647;SDS011;55632;51.962;16.116;2023-07-20T15:15:04;3.80;;;2.90;;
68647;SDS011;55632;51.962;16.116;2023-07-20T15:20:10;3.20;;;1.00;;
68647;SDS011;55632;51.962;16.116;2023-07-20T15:25:12;1.58;;;1.10;;
68647;SDS011;55632;51.962;16.116;2023-07-20T15:30:13;2.05;;;1.52;;
68647;SDS011;55632;51.962;16.116;2023-07-20T15:35:20;2.80;;;1.35;;
68647;SDS011;55632;51.962;16.116;2023-07-20T15:40:21;3.22;;;1.60;;
68647;SDS011;55632;51.962;16.116;2023-07-20T15:45:22;5.78;;;2.63;;
68647;SDS011;55632;51.962;16.116;2023-07-20T15:50:24;5.78;;;2.58;;
68647;SDS011;55632;51.962;16.116;2023-07-20T15:55:25;1.55;;;1.42;;
68647;SDS011;55632;51.962;16.116;2023-07-20T16:00:26;2.75;;;1.00;;
68647;SDS011;55632;51.962;16.116;2023-07-20T16:05:27;3.40;;;1.23;;
68647;SDS011;55632;51.962;16.116;2023-07-20T16:10:28;1.38;;;1.10;;
68647;SDS011;55632;51.962;16.116;2023-07-20T16:15:29;3.25;;;0.98;;
68647;SDS011;55632;51.962;16.116;2023-07-20T16:20:29;1.17;;;0.82;;
68647;SDS011;55632;51.962;16.116;2023-07-20T16:25:31;1.05;;;1.00;;
68647;SDS011;55632;51.962;16.116;2023-07-20T16:30:33;1.98;;;1.10;;
68647;SDS011;55632;51.962;16.116;2023-07-20T16:35:37;1.65;;;0.93;;
68647;SDS011;55632;51.962;16.116;2023-07-20T16:40:39;1.63;;;0.90;;
68647;SDS011;55632;51.962;16.116;2023-07-20T16:45:43;1.15;;;0.95;;
68647;SDS011;55632;51.962;16.116;2023-07-20T16:50:44;9.27;;;6.13;;
68647;SDS011;55632;51.962;16.116;2023-07-20T16:55:48;2.83;;;2.17;;
68647;SDS011;55632;51.962;16.116;2023-07-20T17:00:53;13.00;;;6.75;;
68647;SDS011;55632;51.962;16.116;2023-07-20T17:06:09;15.90;;;8.38;;
68647;SDS011;55632;51.962;16.116;2023-07-20T17:11:09;10.00;;;5.60;;
68647;SDS011;55632;51.962;16.116;2023-07-20T17:16:10;3.00;;;2.03;;
68647;SDS011;55632;51.962;16.116;2023-07-20T17:21:11;4.75;;;1.85;;
68647;SDS011;55632;51.962;16.116;2023-07-20T17:26:14;3.88;;;1.95;;
68647;SDS011;55632;51.962;16.116;2023-07-20T17:31:15;5.00;;;2.70;;
68647;SDS011;55632;51.962;16.116;2023-07-20T17:36:20;12.93;;;9.02;;
68647;SDS011;55632;51.962;16.116;2023-07-20T17:41:24;10.23;;;6.38;;
68647;SDS011;55632;51.962;16.116;2023-07-20T17:46:25;6.90;;;4.68;;
68647;SDS011;55632;51.962;16.116;2023-07-20T17:51:26;7.05;;;4.60;;
68647;SDS011;55632;51.962;16.116;2023-07-20T17:56:27;9.88;;;6.50;;
68647;SDS011;55632;51.962;16.116;2023-07-20T18:01:28;5.75;;;3.78;;
68647;SDS011;55632;51.962;16.116;2023-07-20T18:06:29;4.32;;;2.47;;
68647;SDS011;55632;51.962;16.116;2023-07-20T18:11:30;4.95;;;2.83;;
68647;SDS011;55632;51.962;16.116;2023-07-20T18:16:33;5.80;;;2.97;;
68647;SDS011;55632;51.962;16.116;2023-07-20T18:21:34;9.85;;;4.35;;
68647;SDS011;55632;51.962;16.116;2023-07-20T18:26:34;10.50;;;4.00;;
68647;SDS011;55632;51.962;16.116;2023-07-20T18:31:41;6.60;;;3.10;;
68647;SDS011;55632;51.962;16.116;2023-07-20T18:36:42;7.38;;;2.97;;
68647;SDS011;55632;51.962;16.116;2023-07-20T18:41:44;5.20;;;2.10;;
68647;SDS011;55632;51.962;16.116;2023-07-20T18:46:44;5.80;;;2.45;;
68647;SDS011;55632;51.962;16.116;2023-07-20T18:51:45;8.50;;;3.40;;
68647;SDS011;55632;51.962;16.116;2023-07-20T18:56:49;7.57;;;3.60;;
68647;SDS011;55632;51.962;16.116;2023-07-20T19:01:52;7.28;;;3.20;;
68647;SDS011;55632;51.962;16.116;2023-07-20T19:06:53;4.82;;;2.15;;
68647;SDS011;55632;51.962;16.116;2023-07-20T19:11:55;5.15;;;1.90;;
68647;SDS011;55632;51.962;16.116;2023-07-20T19:16:56;2.08;;;1.45;;
68647;SDS011;55632;51.962;16.116;2023-07-20T19:21:57;2.97;;;1.92;;
68647;SDS011;55632;51.962;16.116;2023-07-20T19:27:01;2.33;;;1.98;;
68647;SDS011;55632;51.962;16.116;2023-07-20T19:32:02;2.70;;;1.60;;
68647;SDS011;55632;51.962;16.116;2023-07-20T19:37:04;1.27;;;1.15;;
68647;SDS011;55632;51.962;16.116;2023-07-20T19:42:05;1.13;;;1.02;;
68647;SDS011;55632;51.962;16.116;2023-07-20T19:47:09;1.52;;;1.25;;
68647;SDS011;55632;51.962;16.116;2023-07-20T19:52:10;1.80;;;1.40;;
68647;SDS011;55632;51.962;16.116;2023-07-20T19:57:11;1.73;;;1.45;;
68647;SDS011;55632;51.962;16.116;2023-07-20T20:02:12;2.30;;;1.52;;
68647;SDS011;55632;51.962;16.116;2023-07-20T20:07:13;2.88;;;2.00;;
68647;SDS011;55632;51.962;16.116;2023-07-20T20:12:16;9.70;;;5.13;;
68647;SDS011;55632;51.962;16.116;2023-07-20T20:17:19;10.00;;;5.07;;
68647;SDS011;55632;51.962;16.116;2023-07-20T20:22:20;5.30;;;3.95;;
68647;SDS011;55632;51.962;16.116;2023-07-20T20:27:21;2.88;;;1.70;;
68647;SDS011;55632;51.962;16.116;2023-07-20T20:32:22;2.03;;;1.63;;
68647;SDS011;55632;51.962;16.116;2023-07-20T20:37:23;2.13;;;1.20;;
68647;SDS011;55632;51.962;16.116;2023-07-20T20:42:25;3.70;;;1.45;;
68647;SDS011;55632;51.962;16.116;2023-07-20T20:47:26;4.45;;;1.27;;
68647;SDS011;55632;51.962;16.116;2023-07-20T20:52:27;8.98;;;2.95;;
68647;SDS011;55632;51.962;16.116;2023-07-20T20:57:29;8.90;;;1.25;;
68647;SDS011;55632;51.962;16.116;2023-07-20T21:02:30;1.10;;;1.00;;
68647;SDS011;55632;51.962;16.116;2023-07-20T21:07:32;1.30;;;1.20;;
68647;SDS011;55632;51.962;16.116;2023-07-20T21:12:33;3.42;;;1.90;;
68647;SDS011;55632;51.962;16.116;2023-07-20T21:17:35;6.97;;;1.98;;
68647;SDS011;55632;51.962;16.116;2023-07-20T21:22:38;2.33;;;1.60;;
68647;SDS011;55632;51.962;16.116;2023-07-20T21:27:41;3.38;;;2.08;;
68647;SDS011;55632;51.962;16.116;2023-07-20T21:32:43;4.55;;;1.88;;
68647;SDS011;55632;51.962;16.116;2023-07-20T21:37:44;3.15;;;1.60;;
68647;SDS011;55632;51.962;16.116;2023-07-20T21:42:45;4.22;;;2.05;;
68647;SDS011;55632;51.962;16.116;2023-07-20T21:47:47;4.65;;;1.85;;
68647;SDS011;55632;51.962;16.116;2023-07-20T21:52:51;4.38;;;1.83;;
68647;SDS011;55632;51.962;16.116;2023-07-20T21:57:54;1.60;;;1.30;;
68647;SDS011;55632;51.962;16.116;2023-07-20T22:02:57;2.13;;;1.58;;
68647;SDS011;55632;51.962;16.116;2023-07-20T22:08:04;1.50;;;1.40;;
68647;SDS011;55632;51.962;16.116;2023-07-20T22:13:05;3.25;;;2.25;;
68647;SDS011;55632;51.962;16.116;2023-07-20T22:18:07;5.15;;;2.10;;
68647;SDS011;55632;51.962;16.116;2023-07-20T22:23:11;2.88;;;1.95;;
68647;SDS011;55632;51.962;16.116;2023-07-20T22:28:11;1.92;;;1.65;;
68647;SDS011;55632;51.962;16.116;2023-07-20T22:33:12;2.63;;;1.60;;
68647;SDS011;55632;51.962;16.116;2023-07-20T22:38:13;3.60;;;1.80;;
68647;SDS011;55632;51.962;16.116;2023-07-20T22:43:17;42.83;;;16.27;;
68647;SDS011;55632;51.962;16.116;2023-07-20T22:48:21;24.80;;;8.90;;
68647;SDS011;55632;51.962;16.116;2023-07-20T22:53:24;10.05;;;4.30;;
68647;SDS011;55632;51.962;16.116;2023-07-20T22:58:28;4.30;;;1.95;;
68647;SDS011;55632;51.962;16.116;2023-07-20T23:03:33;3.75;;;2.50;;
68647;SDS011;55632;51.962;16.116;2023-07-20T23:08:35;5.25;;;1.70;;
68647;SDS011;55632;51.962;16.116;2023-07-20T23:13:41;4.28;;;2.08;;
68647;SDS011;55632;51.962;16.116;2023-07-20T23:18:43;9.38;;;4.00;;
68647;SDS011;55632;51.962;16.116;2023-07-20T23:23:48;7.15;;;2.50;;
68647;SDS011;55632;51.962;16.116;2023-07-20T23:28:53;3.67;;;1.73;;
68647;SDS011;55632;51.962;16.116;2023-07-20T23:33:56;2.17;;;1.90;;
68647;SDS011;55632;51.962;16.116;2023-07-20T23:39:00;2.55;;;1.77;;
68647;SDS011;55632;51.962;16.116;2023-07-20T23:44:08;4.20;;;2.13;;
68647;SDS011;55632;51.962;16.116;2023-07-20T23:49:12;2.17;;;1.90;;
68647;SDS011;55632;51.962;16.116;2023-07-20T23:54:14;3.63;;;2.13;;
68647;SDS011;55632;51.962;16.116;2023-07-20T23:59:18;1.80;;;1.60;;
